createdAt,value
2023-05-28T00:01:31.121Z,33.20
2023-05-28T00:03:58.284Z,33.20
2023-05-28T00:06:25.726Z,33.10
2023-05-28T00:08:52.801Z,33.30
2023-05-28T00:11:19.874Z,33.20
2023-05-28T00:13:46.846Z,33.20
2023-05-28T00:16:14.396Z,33.20
2023-05-28T00:18:41.695Z,33.20
2023-05-28T00:21:08.590Z,33.30
2023-05-28T00:23:35.650Z,33.30
2023-05-28T00:26:02.671Z,33.30
2023-05-28T00:28:29.884Z,33.30
2023-05-28T00:30:56.861Z,33.40
2023-05-28T00:33:23.824Z,33.30
2023-05-28T00:35:56.211Z,33.30
2023-05-28T00:38:24.060Z,33.40
2023-05-28T00:40:51.243Z,33.40
2023-05-28T00:43:20.292Z,33.40
2023-05-28T00:45:49.547Z,33.50
2023-05-28T00:48:16.865Z,33.40
2023-05-28T00:50:44.902Z,33.50
2023-05-28T00:53:14.543Z,33.50
2023-05-28T00:55:41.591Z,33.50
2023-05-28T00:58:08.688Z,33.60
2023-05-28T01:00:38.230Z,33.50
2023-05-28T01:03:06.978Z,33.60
2023-05-28T01:05:35.507Z,33.60
2023-05-28T01:08:08.004Z,33.60
2023-05-28T01:10:36.169Z,33.70
2023-05-28T01:13:07.939Z,33.70
2023-05-28T01:15:36.923Z,33.70
2023-05-28T01:18:05.606Z,33.70
2023-05-28T01:20:32.606Z,33.70
2023-05-28T01:23:16.627Z,34.30
2023-05-28T01:25:45.825Z,33.90
2023-05-28T01:28:14.319Z,33.70
2023-05-28T01:30:41.766Z,33.80
2023-05-28T01:33:08.777Z,33.80
2023-05-28T01:35:36.257Z,33.80
2023-05-28T01:38:04.881Z,33.80
2023-05-28T01:40:34.578Z,33.80
2023-05-28T01:43:03.003Z,33.90
2023-05-28T01:45:30.552Z,33.90
2023-05-28T01:47:57.804Z,33.90
2023-05-28T01:50:25.514Z,33.90
2023-05-28T01:52:52.483Z,33.90
2023-05-28T01:55:20.264Z,33.90
2023-05-28T01:57:47.309Z,34.00
2023-05-28T02:00:16.088Z,34.00
2023-05-28T02:02:44.166Z,33.90
2023-05-28T02:05:11.519Z,34.00
2023-05-28T02:07:39.197Z,34.00
2023-05-28T02:10:08.263Z,34.00
2023-05-28T02:12:36.613Z,34.00
2023-05-28T02:15:04.797Z,34.00
2023-05-28T02:17:32.933Z,34.10
2023-05-28T02:20:00.174Z,34.10
2023-05-28T02:22:27.085Z,34.10
2023-05-28T02:24:53.999Z,34.20
2023-05-28T02:27:21.131Z,34.10
2023-05-28T02:29:48.433Z,34.20
2023-05-28T02:32:15.524Z,34.20
2023-05-28T02:34:43.066Z,34.30
2023-05-28T02:37:10.331Z,34.30
2023-05-28T02:39:37.370Z,34.20
2023-05-28T02:42:04.546Z,34.30
2023-05-28T02:44:31.578Z,34.20
2023-05-28T02:46:58.583Z,34.30
2023-05-28T02:49:25.522Z,34.30
2023-05-28T02:51:52.574Z,34.30
2023-05-28T02:54:19.472Z,34.30
2023-05-28T02:56:46.357Z,34.40
2023-05-28T02:59:13.292Z,34.40
2023-05-28T03:01:40.316Z,34.40
2023-05-28T03:04:07.773Z,34.40
2023-05-28T03:06:34.730Z,34.40
2023-05-28T03:09:01.888Z,34.40
2023-05-28T03:11:28.830Z,34.50
2023-05-28T03:13:55.915Z,34.50
2023-05-28T03:16:22.930Z,34.50
2023-05-28T03:18:49.846Z,34.50
2023-05-28T03:21:16.866Z,34.60
2023-05-28T03:23:43.789Z,34.50
2023-05-28T03:26:10.788Z,34.60
2023-05-28T03:28:37.701Z,34.60
2023-05-28T03:31:05.132Z,34.50
2023-05-28T03:33:32.093Z,34.60
2023-05-28T03:35:59.107Z,34.70
2023-05-28T03:38:26.125Z,34.70
2023-05-28T03:40:53.063Z,34.60
2023-05-28T03:43:19.976Z,34.80
2023-05-28T03:45:46.963Z,34.70
2023-05-28T03:48:13.977Z,34.70
2023-05-28T03:50:40.964Z,34.70
2023-05-28T03:53:07.972Z,34.70
2023-05-28T03:55:37.069Z,34.70
2023-05-28T03:58:04.076Z,34.70
2023-05-28T04:00:31.139Z,34.80
2023-05-28T04:02:58.088Z,34.80
2023-05-28T04:05:25.537Z,34.80
2023-05-28T04:07:52.450Z,34.80
2023-05-28T04:10:19.499Z,34.80
2023-05-28T04:12:46.409Z,34.80
2023-05-28T04:15:13.630Z,34.90
2023-05-28T04:17:40.616Z,35.60
2023-05-28T04:20:08.238Z,34.90
2023-05-28T04:22:35.211Z,34.90
2023-05-28T04:25:02.693Z,35.00
2023-05-28T04:27:29.674Z,34.90
2023-05-28T04:29:57.977Z,34.90
2023-05-28T04:32:25.392Z,35.00
2023-05-28T04:34:55.804Z,35.00
2023-05-28T04:37:23.293Z,35.00
2023-05-28T04:39:50.682Z,35.00
2023-05-28T04:42:19.392Z,35.00
2023-05-28T04:44:46.587Z,35.00
2023-05-28T04:47:14.274Z,35.00
2023-05-28T04:49:41.656Z,35.10
2023-05-28T04:52:09.653Z,35.00
2023-05-28T04:54:36.624Z,35.10
2023-05-28T04:57:03.862Z,35.10
2023-05-28T04:59:30.947Z,35.10
2023-05-28T05:01:58.212Z,35.10
2023-05-28T05:04:25.549Z,35.10
2023-05-28T05:06:52.803Z,35.10
2023-05-28T05:09:20.792Z,35.20
2023-05-28T05:11:48.039Z,35.20
2023-05-28T05:14:14.980Z,35.10
2023-05-28T05:16:42.302Z,35.10
2023-05-28T05:19:09.470Z,35.20
2023-05-28T05:21:36.926Z,35.20
2023-05-28T05:24:03.969Z,35.20
2023-05-28T05:26:30.910Z,35.20
2023-05-28T05:28:57.832Z,35.30
2023-05-28T05:31:24.788Z,35.30
2023-05-28T05:33:52.400Z,35.20
2023-05-28T05:36:19.462Z,35.20
2023-05-28T05:38:47.044Z,35.30
2023-05-28T05:41:14.048Z,35.30
2023-05-28T05:43:40.943Z,35.20
2023-05-28T05:46:07.963Z,35.20
2023-05-28T05:48:35.029Z,35.30
2023-05-28T05:51:03.792Z,35.20
2023-05-28T05:53:30.888Z,35.90
2023-05-28T05:55:58.196Z,35.30
2023-05-28T05:58:25.767Z,35.30
2023-05-28T06:00:52.850Z,35.30
2023-05-28T06:03:20.306Z,35.30
2023-05-28T06:05:47.369Z,35.30
2023-05-28T06:08:14.753Z,35.30
2023-05-28T06:10:41.721Z,35.30
2023-05-28T06:13:08.648Z,35.30
2023-05-28T06:15:36.055Z,35.30
2023-05-28T06:18:04.728Z,35.30
2023-05-28T06:20:31.991Z,35.30
2023-05-28T06:22:59.495Z,35.40
2023-05-28T06:25:26.483Z,35.30
2023-05-28T06:27:53.439Z,35.40
2023-05-28T06:30:20.388Z,35.30
2023-05-28T06:32:47.368Z,35.30
2023-05-28T06:35:14.608Z,35.30
2023-05-28T06:37:41.570Z,35.30
2023-05-28T06:40:11.527Z,35.30
2023-05-28T06:42:41.966Z,35.30
2023-05-28T06:45:09.851Z,35.40
2023-05-28T06:47:37.041Z,35.30
2023-05-28T06:50:04.983Z,35.30
2023-05-28T06:52:31.878Z,35.30
2023-05-28T06:54:58.796Z,35.40
2023-05-28T06:57:25.856Z,35.30
2023-05-28T06:59:52.824Z,35.30
2023-05-28T07:02:19.911Z,35.30
2023-05-28T07:04:47.403Z,35.30
2023-05-28T07:07:14.618Z,35.40
2023-05-28T07:09:42.240Z,35.30
2023-05-28T07:12:09.426Z,35.40
2023-05-28T07:14:37.510Z,35.30
2023-05-28T07:17:05.605Z,35.30
2023-05-28T07:19:34.215Z,35.40
2023-05-28T07:22:01.295Z,35.40
2023-05-28T07:24:28.362Z,35.40
2023-05-28T07:26:55.471Z,35.30
2023-05-28T07:29:22.428Z,35.30
2023-05-28T07:31:49.415Z,35.40
2023-05-28T07:34:16.400Z,35.30
2023-05-28T07:36:43.330Z,35.90
2023-05-28T07:39:11.348Z,35.30
2023-05-28T07:41:38.412Z,35.30
2023-05-28T07:44:07.356Z,35.30
2023-05-28T07:46:35.869Z,35.40
2023-05-28T07:49:03.368Z,35.30
2023-05-28T07:51:30.375Z,35.30
2023-05-28T07:53:57.962Z,35.30
2023-05-28T07:56:24.982Z,35.30
2023-05-28T07:58:52.374Z,35.30
2023-05-28T08:01:19.423Z,35.20
2023-05-28T08:03:49.741Z,35.20
2023-05-28T08:06:16.869Z,35.30
2023-05-28T08:08:43.826Z,35.20
2023-05-28T08:11:14.394Z,35.20
2023-05-28T08:13:42.813Z,35.20
2023-05-28T08:16:15.585Z,35.10
2023-05-28T08:18:42.608Z,35.10
2023-05-28T08:21:09.727Z,35.10
2023-05-28T08:23:36.721Z,35.10
2023-05-28T08:26:04.553Z,35.10
2023-05-28T08:28:31.922Z,35.10
2023-05-28T08:30:59.178Z,35.10
2023-05-28T08:33:26.387Z,35.10
2023-05-28T08:35:53.668Z,35.00
2023-05-28T08:38:21.002Z,35.00
2023-05-28T08:40:55.756Z,35.10
2023-05-28T08:43:23.783Z,35.10
2023-05-28T08:45:54.592Z,35.10
2023-05-28T08:48:24.430Z,35.10
2023-05-28T08:50:54.772Z,35.00
2023-05-28T08:53:26.033Z,35.00
2023-05-28T08:55:54.499Z,35.00
2023-05-28T08:58:22.449Z,35.00
2023-05-28T09:00:50.252Z,34.90
2023-05-28T09:03:17.504Z,34.90
2023-05-28T09:05:46.264Z,34.80
2023-05-28T09:08:14.307Z,34.80
2023-05-28T09:10:41.982Z,34.80
2023-05-28T09:13:09.016Z,34.80
2023-05-28T09:15:36.601Z,34.80
2023-05-28T09:18:06.201Z,34.80
2023-05-28T09:20:33.648Z,34.70
2023-05-28T09:23:04.079Z,34.70
2023-05-28T09:25:37.274Z,34.70
2023-05-28T09:28:05.231Z,34.70
2023-05-28T09:30:38.700Z,34.70
2023-05-28T09:33:08.704Z,34.70
2023-05-28T09:35:36.898Z,34.80
2023-05-28T09:38:09.807Z,34.90
2023-05-28T09:40:42.579Z,34.90
2023-05-28T09:43:10.641Z,34.80
2023-05-28T09:45:38.330Z,34.80
2023-05-28T09:48:05.947Z,34.90
2023-05-28T09:50:33.157Z,34.80
2023-05-28T09:53:01.612Z,34.80
2023-05-28T09:55:31.482Z,34.70
2023-05-28T09:58:11.492Z,34.70
2023-05-28T10:00:49.026Z,34.70
2023-05-28T10:03:45.111Z,34.70
2023-05-28T10:06:18.452Z,34.70
2023-05-28T10:08:52.625Z,34.70
2023-05-28T10:11:32.462Z,34.60
2023-05-28T10:14:01.088Z,34.50
2023-05-28T10:16:28.364Z,34.60
2023-05-28T10:18:57.302Z,34.50
2023-05-28T10:21:26.033Z,34.60
2023-05-28T10:23:53.996Z,34.40
2023-05-28T10:26:22.626Z,34.50
2023-05-28T10:28:58.776Z,34.40
2023-05-28T10:31:26.749Z,34.40
2023-05-28T10:33:53.892Z,34.40
2023-05-28T10:36:21.174Z,34.40
2023-05-28T10:38:54.006Z,34.40
2023-05-28T10:41:25.452Z,34.30
2023-05-28T10:43:53.532Z,34.30
2023-05-28T10:46:26.438Z,34.30
2023-05-28T10:49:17.884Z,34.30
2023-05-28T10:52:03.127Z,34.20
2023-05-28T10:54:38.453Z,34.30
2023-05-28T10:57:20.325Z,34.30
2023-05-28T10:59:49.808Z,34.10
2023-05-28T11:02:29.076Z,34.30
2023-05-28T11:05:00.645Z,34.00
2023-05-28T11:07:43.296Z,34.20
2023-05-28T11:10:13.979Z,33.90
2023-05-28T11:12:43.049Z,34.10
2023-05-28T11:15:13.366Z,34.80
2023-05-28T11:17:46.701Z,34.00
2023-05-28T11:20:31.326Z,33.90
2023-05-28T11:22:58.307Z,33.70
2023-05-28T11:25:27.996Z,33.90
2023-05-28T11:27:55.601Z,33.80
2023-05-28T11:30:22.620Z,33.70
2023-05-28T11:32:51.332Z,33.70
2023-05-28T11:35:18.896Z,33.70
2023-05-28T11:37:46.967Z,33.60
2023-05-28T11:40:15.709Z,33.60
2023-05-28T11:42:45.127Z,33.50
2023-05-28T11:45:13.683Z,33.50
2023-05-28T11:47:43.706Z,33.50
2023-05-28T11:50:14.968Z,33.40
2023-05-28T11:52:44.056Z,33.20
2023-05-28T11:55:11.887Z,33.30
2023-05-28T11:57:40.012Z,33.20
2023-05-28T12:00:16.566Z,33.10
2023-05-28T12:02:54.451Z,33.00
2023-05-28T12:05:22.341Z,32.60
2023-05-28T12:07:52.602Z,32.80
2023-05-28T12:10:22.532Z,32.70
2023-05-28T12:12:57.260Z,32.50
2023-05-28T12:15:29.033Z,32.30
2023-05-28T12:17:59.468Z,32.30
2023-05-28T12:20:26.431Z,32.20
2023-05-28T12:23:12.427Z,32.20
2023-05-28T12:25:52.064Z,31.80
2023-05-28T12:28:22.541Z,31.70
2023-05-28T12:30:54.349Z,32.10
2023-05-28T12:33:23.201Z,31.90
2023-05-28T12:35:51.555Z,31.90
2023-05-28T12:38:20.404Z,31.70
2023-05-28T12:40:47.434Z,31.60
2023-05-28T12:43:15.524Z,31.60
2023-05-28T12:45:42.482Z,31.50
2023-05-28T12:48:09.835Z,31.40
2023-05-28T12:50:37.272Z,31.30
2023-05-28T12:53:08.280Z,31.20
2023-05-28T12:55:35.244Z,31.10
2023-05-28T12:58:02.783Z,30.90
2023-05-28T13:00:29.823Z,30.80
2023-05-28T13:02:56.852Z,30.70
2023-05-28T13:05:24.043Z,30.60
2023-05-28T13:07:51.009Z,30.50
2023-05-28T13:10:19.191Z,30.30
2023-05-28T13:12:46.277Z,30.20
2023-05-28T13:15:14.164Z,30.10
2023-05-28T13:17:41.154Z,30.00
2023-05-28T13:20:11.778Z,29.90
2023-05-28T13:22:39.680Z,29.70
2023-05-28T13:25:08.196Z,30.00
2023-05-28T13:27:35.620Z,29.40
2023-05-28T13:30:03.967Z,29.40
2023-05-28T13:32:31.152Z,29.30
2023-05-28T13:34:58.159Z,29.30
2023-05-28T13:37:25.137Z,29.30
2023-05-28T13:39:54.465Z,29.20
2023-05-28T13:42:22.231Z,29.20
2023-05-28T13:44:50.041Z,29.20
2023-05-28T13:47:17.609Z,29.20
2023-05-28T13:49:45.052Z,29.20
2023-05-28T13:52:12.432Z,29.20
2023-05-28T13:54:42.023Z,29.30
2023-05-28T13:57:09.473Z,29.30
2023-05-28T13:59:36.556Z,29.20
2023-05-28T14:02:04.891Z,29.30
2023-05-28T14:04:32.031Z,29.30
2023-05-28T14:06:58.993Z,29.20
2023-05-28T14:09:29.157Z,29.30
2023-05-28T14:14:28.590Z,29.30
2023-05-28T14:16:56.005Z,29.40
2023-05-28T14:19:23.000Z,29.40
2023-05-28T14:21:49.953Z,29.40
2023-05-28T14:24:16.994Z,29.40
2023-05-28T14:26:44.034Z,29.40
2023-05-28T14:29:11.174Z,29.40
2023-05-28T14:31:38.256Z,29.50
2023-05-28T14:34:05.385Z,29.60
2023-05-28T14:36:33.064Z,29.60
2023-05-28T14:39:00.212Z,29.60
2023-05-28T14:41:27.447Z,30.10
2023-05-28T14:43:54.446Z,29.70
2023-05-28T14:46:21.557Z,29.70
2023-05-28T14:48:48.531Z,29.70
2023-05-28T14:51:15.566Z,29.70
2023-05-28T14:53:42.531Z,29.80
2023-05-28T14:56:09.515Z,29.80
2023-05-28T14:58:36.933Z,29.80
2023-05-28T15:01:04.365Z,29.90
2023-05-28T15:03:32.539Z,29.80
2023-05-28T15:06:00.161Z,29.90
2023-05-28T15:08:27.757Z,29.90
2023-05-28T15:10:54.744Z,30.00
2023-05-28T15:13:21.699Z,30.60
2023-05-28T15:15:48.841Z,30.00
2023-05-28T15:18:15.833Z,30.10
2023-05-28T15:20:42.977Z,30.10
2023-05-28T15:23:10.362Z,30.20
2023-05-28T15:25:38.026Z,30.10
2023-05-28T15:28:05.598Z,30.20
2023-05-28T15:30:32.964Z,30.30
2023-05-28T15:33:02.010Z,30.30
2023-05-28T15:35:29.706Z,30.50
2023-05-28T15:37:57.786Z,30.60
2023-05-28T15:40:25.528Z,31.30
2023-05-28T15:42:58.624Z,30.80
2023-05-28T15:45:26.153Z,30.80
2023-05-28T15:47:53.188Z,30.70
2023-05-28T15:50:20.400Z,30.70
2023-05-28T15:52:47.710Z,30.60
2023-05-28T15:55:14.998Z,31.30
2023-05-28T15:57:42.115Z,30.60
2023-05-28T16:00:10.235Z,30.50
2023-05-28T16:02:43.151Z,30.50
2023-05-28T16:05:12.148Z,30.40
2023-05-28T16:07:39.449Z,30.40
2023-05-28T16:10:07.997Z,30.40
2023-05-28T16:12:36.870Z,30.40
2023-05-28T16:15:08.926Z,30.30
2023-05-28T16:17:40.081Z,30.40
2023-05-28T16:20:11.257Z,30.40
2023-05-28T16:22:39.458Z,30.50
2023-05-28T16:25:07.360Z,30.40
2023-05-28T16:27:36.597Z,30.50
2023-05-28T16:30:05.716Z,30.50
2023-05-28T16:32:33.880Z,30.60
2023-05-28T16:35:02.382Z,30.60
2023-05-28T16:37:30.181Z,30.60
2023-05-28T16:39:58.709Z,30.60
2023-05-28T16:42:26.203Z,30.70
2023-05-28T16:44:53.432Z,30.70
2023-05-28T16:47:21.086Z,30.80
2023-05-28T16:49:48.101Z,30.80
2023-05-28T16:52:15.540Z,30.80
2023-05-28T16:54:46.777Z,30.80
2023-05-28T16:57:14.484Z,30.90
2023-05-28T16:59:41.527Z,30.90
2023-05-28T17:02:10.737Z,30.90
2023-05-28T17:04:38.493Z,30.90
2023-05-28T17:07:09.161Z,31.00
2023-05-28T17:09:36.164Z,31.00
2023-05-28T17:12:03.883Z,31.00
2023-05-28T17:14:31.097Z,31.10
2023-05-28T17:16:58.105Z,31.10
2023-05-28T17:19:25.272Z,31.10
2023-05-28T17:21:52.665Z,31.10
2023-05-28T17:24:19.780Z,31.10
2023-05-28T17:26:47.033Z,31.10
2023-05-28T17:29:14.152Z,31.20
2023-05-28T17:31:41.344Z,31.20
2023-05-28T17:34:08.850Z,31.20
2023-05-28T17:36:36.046Z,31.20
2023-05-28T17:39:03.450Z,31.20
2023-05-28T17:41:31.213Z,31.30
2023-05-28T17:43:58.153Z,31.30
2023-05-28T17:46:39.445Z,31.30
2023-05-28T17:49:06.712Z,31.50
2023-05-28T17:51:33.847Z,31.30
2023-05-28T17:54:01.250Z,31.30
2023-05-28T17:56:28.390Z,31.40
2023-05-28T17:58:55.450Z,31.40
2023-05-28T18:01:22.484Z,31.40
2023-05-28T18:03:49.584Z,31.40
2023-05-28T18:06:16.750Z,31.40
2023-05-28T18:08:43.919Z,31.40
2023-05-28T18:11:11.208Z,31.40
2023-05-28T18:13:38.286Z,31.40
2023-05-28T18:16:05.670Z,31.50
2023-05-28T18:18:33.122Z,31.50
2023-05-28T18:21:00.490Z,31.50
2023-05-28T18:23:29.025Z,31.40
2023-05-28T18:25:56.049Z,31.50
2023-05-28T18:28:27.094Z,31.50
2023-05-28T18:30:55.514Z,31.50
2023-05-28T18:33:22.921Z,31.50
2023-05-28T18:35:50.046Z,31.50
2023-05-28T18:38:17.168Z,31.60
2023-05-28T18:40:44.132Z,31.60
2023-05-28T18:43:11.086Z,31.60
2023-05-28T18:45:38.091Z,31.60
2023-05-28T18:48:05.600Z,31.60
2023-05-28T18:50:32.709Z,31.60
2023-05-28T18:52:59.653Z,31.60
2023-05-28T18:55:26.681Z,31.60
2023-05-28T18:57:53.633Z,31.60
2023-05-28T19:00:22.176Z,31.70
2023-05-28T19:02:49.283Z,31.70
2023-05-28T19:05:16.379Z,31.70
2023-05-28T19:07:43.598Z,31.60
2023-05-28T19:10:11.321Z,31.70
2023-05-28T19:12:38.471Z,31.70
2023-05-28T19:15:06.820Z,31.70
2023-05-28T19:17:33.913Z,31.70
2023-05-28T19:20:01.223Z,31.70
2023-05-28T19:22:28.350Z,31.70
2023-05-28T19:24:59.611Z,31.70
2023-05-28T19:27:27.176Z,31.70
2023-05-28T19:29:55.526Z,31.70
2023-05-28T19:32:23.878Z,31.80
2023-05-28T19:34:51.364Z,31.80
2023-05-28T19:37:18.512Z,31.80
2023-05-28T19:39:45.513Z,31.80
2023-05-28T19:42:12.816Z,31.80
2023-05-28T19:44:40.287Z,31.80
2023-05-28T19:47:07.439Z,31.90
2023-05-28T19:49:34.438Z,31.80
2023-05-28T19:52:03.119Z,31.80
2023-05-28T19:54:30.968Z,31.80
2023-05-28T19:56:58.093Z,31.90
2023-05-28T19:59:26.064Z,31.90
2023-05-28T20:01:53.009Z,31.90
2023-05-28T20:04:21.826Z,31.90
2023-05-28T20:06:49.102Z,31.90
2023-05-28T20:09:16.756Z,32.00
2023-05-28T20:11:46.403Z,32.00
2023-05-28T20:14:14.711Z,31.90
2023-05-28T20:16:44.174Z,32.00
2023-05-28T20:19:13.841Z,32.00
2023-05-28T20:21:41.235Z,32.00
2023-05-28T20:24:08.679Z,32.10
2023-05-28T20:26:38.560Z,32.10
2023-05-28T20:29:05.716Z,32.20
2023-05-28T20:31:32.770Z,32.10
2023-05-28T20:33:59.722Z,32.20
2023-05-28T20:36:26.887Z,32.20
2023-05-28T20:38:53.928Z,32.20
2023-05-28T20:41:23.100Z,32.20
2023-05-28T20:43:50.155Z,32.20
2023-05-28T20:46:17.263Z,32.20
2023-05-28T20:48:44.750Z,32.20
2023-05-28T20:51:11.801Z,32.20
2023-05-28T20:53:38.709Z,32.30
2023-05-28T20:56:07.410Z,32.30
2023-05-28T20:58:35.028Z,32.30
2023-05-28T21:01:03.482Z,32.30
2023-05-28T21:03:30.899Z,32.40
2023-05-28T21:05:57.962Z,32.30
2023-05-28T21:08:24.890Z,32.40
2023-05-28T21:10:52.021Z,32.40
2023-05-28T21:13:19.213Z,32.40
2023-05-28T21:15:46.646Z,32.40
2023-05-28T21:18:13.703Z,32.50
2023-05-28T21:20:40.868Z,32.50
2023-05-28T21:23:07.953Z,32.40
2023-05-28T21:25:35.047Z,32.40
2023-05-28T21:28:02.011Z,32.50
2023-05-28T21:30:30.923Z,32.50
2023-05-28T21:32:58.385Z,32.50
2023-05-28T21:35:25.632Z,32.60
2023-05-28T21:37:52.734Z,32.50
2023-05-28T21:40:22.023Z,32.50
2023-05-28T21:42:51.895Z,32.60
2023-05-28T21:45:19.224Z,32.60
2023-05-28T21:47:46.292Z,32.60
2023-05-28T21:50:13.482Z,32.60
2023-05-28T21:52:40.723Z,32.60
2023-05-28T21:55:08.283Z,32.60
2023-05-28T21:57:35.398Z,32.60
2023-05-28T22:00:03.241Z,32.70
2023-05-28T22:02:30.225Z,32.70
2023-05-28T22:04:57.700Z,32.70
2023-05-28T22:07:28.185Z,32.70
2023-05-28T22:09:57.748Z,32.80
2023-05-28T22:12:27.099Z,32.80
2023-05-28T22:14:55.574Z,32.80
2023-05-28T22:17:22.694Z,32.90
2023-05-28T22:19:49.790Z,32.80
2023-05-28T22:22:17.406Z,32.90
2023-05-28T22:24:49.602Z,32.90
2023-05-28T22:27:16.780Z,32.90
2023-05-28T22:29:44.971Z,32.90
2023-05-28T22:32:12.967Z,33.00
2023-05-28T22:34:40.379Z,33.00
2023-05-28T22:37:07.446Z,32.90
2023-05-28T22:39:34.389Z,33.00
2023-05-28T22:42:01.309Z,33.00
2023-05-28T22:44:30.607Z,33.00
2023-05-28T22:47:00.429Z,33.00
2023-05-28T22:49:29.949Z,33.10
2023-05-28T22:51:57.232Z,33.10
2023-05-28T22:54:25.371Z,33.10
2023-05-28T22:56:54.089Z,33.20
2023-05-28T22:59:21.990Z,33.20
2023-05-28T23:01:50.721Z,33.10
2023-05-28T23:04:18.282Z,33.10
2023-05-28T23:06:45.567Z,33.20
2023-05-28T23:09:13.017Z,33.20
2023-05-28T23:11:40.005Z,33.20
2023-05-28T23:14:08.426Z,33.20
2023-05-28T23:16:35.997Z,33.20
2023-05-28T23:19:03.588Z,33.30
2023-05-28T23:21:32.652Z,33.30
2023-05-28T23:24:01.039Z,33.20
2023-05-28T23:26:28.393Z,33.30
2023-05-28T23:28:55.390Z,33.30
2023-05-28T23:31:22.502Z,33.30
2023-05-28T23:33:49.635Z,33.40
2023-05-28T23:36:16.568Z,33.40
2023-05-28T23:38:43.577Z,33.40
2023-05-28T23:41:10.604Z,33.40
2023-05-28T23:43:37.537Z,33.40
2023-05-28T23:46:07.013Z,33.40
2023-05-28T23:48:34.301Z,33.40
2023-05-28T23:51:01.229Z,33.40
2023-05-28T23:53:28.147Z,33.50
2023-05-28T23:55:55.268Z,33.50
2023-05-28T23:58:22.380Z,33.50
